Time;durP1;ratioP1;P1;durP2;ratioP2;P2;SDS_P1;SDS_P2;PMS_P1;PMS_P2;Temp;Humidity;BMP_temperature;BMP_pressure;BME280_temperature;BME280_humidity;BME280_pressure;Samples;Min_cycle;Max_cycle;Signal;HPM_P1;HPM_P2
2023/12/18 00:01:12;;;;;;;13.07;7.55;;;;;;;-3.18;78.80;96568.06;5111834;28;20028;-74
2023/12/18 00:03:38;;;;;;;12.25;7.25;;;;;;;-3.21;78.75;96572.31;5112244;28;20074;-74
2023/12/18 00:06:03;;;;;;;12.02;6.85;;;;;;;-3.01;77.44;96583.31;5110462;28;20023;-74
2023/12/18 00:08:29;;;;;;;12.45;6.40;;;;;;;-3.17;76.27;96549.44;5110425;28;20047;-74
2023/12/18 00:10:54;;;;;;;9.95;6.03;;;;;;;-3.02;76.23;96571.44;5110410;28;20027;-74
2023/12/18 00:13:20;;;;;;;10.63;6.85;;;;;;;-3.06;75.81;96596.88;5110428;28;20032;-74
2023/12/18 00:15:45;;;;;;;14.00;7.78;;;;;;;-3.26;76.45;96582.50;5111662;28;20020;-74
2023/12/18 00:18:11;;;;;;;13.75;7.28;;;;;;;-3.44;77.51;96569.78;5144710;27;20043;-75
2023/12/18 00:20:36;;;;;;;13.57;7.68;;;;;;;-3.27;78.28;96582.50;5127500;27;20469;-74
2023/12/18 00:23:02;;;;;;;12.50;7.15;;;;;;;-3.41;78.37;96562.16;5111660;28;20034;-75
2023/12/18 00:25:27;;;;;;;11.45;6.63;;;;;;;-3.50;79.24;96570.63;5127353;27;20027;-74
2023/12/18 00:27:52;;;;;;;11.65;7.03;;;;;;;-3.61;79.70;96552.00;5127253;27;20039;-74
2023/12/18 00:30:18;;;;;;;12.30;6.65;;;;;;;-3.34;79.63;96570.63;5111149;28;20477;-74
2023/12/18 00:32:43;;;;;;;11.20;6.28;;;;;;;-3.29;78.89;96569.75;5111532;28;20042;-74
2023/12/18 00:35:09;;;;;;;9.38;6.28;;;;;;;-3.32;79.58;96559.59;5110012;28;20416;-74
2023/12/18 00:37:34;;;;;;;10.90;5.43;;;;;;;-3.40;79.46;96539.31;5144482;27;20028;-74
2023/12/18 00:40:00;;;;;;;8.52;5.00;;;;;;;-3.14;78.94;96551.13;5111341;28;20028;-74
2023/12/18 00:42:25;;;;;;;8.80;5.13;;;;;;;-3.13;79.16;96552.81;5126954;28;20034;-74
2023/12/18 00:44:50;;;;;;;8.20;4.85;;;;;;;-3.26;79.54;96541.81;5111148;28;20208;-75
2023/12/18 00:47:16;;;;;;;8.52;4.72;;;;;;;-3.04;79.31;96537.50;5092919;28;20045;-74
2023/12/18 00:49:41;;;;;;;8.65;4.93;;;;;;;-3.16;79.28;96514.69;5126944;28;20028;-75
2023/12/18 00:52:08;;;;;;;8.00;4.68;;;;;;;-3.05;79.07;96537.53;5111156;28;20085;-74
2023/12/18 00:54:33;;;;;;;20.17;13.68;;;;;;;-3.13;77.48;96524.84;5111150;28;20034;-75
2023/12/18 00:56:59;;;;;;;22.80;13.68;;;;;;;-3.07;76.43;96529.06;5109845;28;20024;-74
2023/12/18 00:59:24;;;;;;;16.17;9.80;;;;;;;-3.18;76.93;96535.00;5111024;28;20474;-74
2023/12/18 01:01:49;;;;;;;13.32;9.68;;;;;;;-3.17;77.48;96541.81;5126861;28;20032;-74
2023/12/18 01:04:15;;;;;;;21.30;9.18;;;;;;;-3.33;77.55;96504.53;5144133;27;20046;-74
2023/12/18 01:06:40;;;;;;;14.13;9.35;;;;;;;-3.19;77.34;96528.25;5144128;27;20031;-74
2023/12/18 01:09:06;;;;;;;13.05;7.80;;;;;;;-3.09;76.77;96518.03;5144101;27;20023;-74
2023/12/18 01:11:31;;;;;;;10.95;6.57;;;;;;;-2.98;76.31;96527.34;5109838;28;20020;-74
2023/12/18 01:13:57;;;;;;;9.35;5.30;;;;;;;-3.07;76.61;96516.34;5110700;28;20485;-74
2023/12/18 01:16:22;;;;;;;9.77;5.07;;;;;;;-3.03;76.63;96515.50;5111262;28;20027;-74
2023/12/18 01:18:47;;;;;;;7.45;4.55;;;;;;;-3.16;77.01;96514.69;5144217;27;20036;-74
2023/12/18 01:21:13;;;;;;;8.35;4.47;;;;;;;-3.07;76.81;96522.28;5109669;28;20032;-74
2023/12/18 01:23:39;;;;;;;7.03;4.53;;;;;;;-3.04;75.79;96513.78;5111269;28;20031;-74
2023/12/18 01:26:04;;;;;;;10.60;4.38;;;;;;;-3.32;76.62;96516.38;5110868;28;20390;-74
2023/12/18 01:28:30;;;;;;;8.75;4.22;;;;;;;-3.32;76.97;96520.63;5111171;28;20405;-74
2023/12/18 01:30:56;;;;;;;8.27;4.88;;;;;;;-3.25;76.38;96514.69;5126635;28;20115;-74
2023/12/18 01:33:21;;;;;;;7.18;4.63;;;;;;;-3.25;76.62;96502.00;5109662;28;20031;-75
2023/12/18 01:35:47;;;;;;;8.60;5.05;;;;;;;-3.51;76.54;96499.47;5126633;28;20023;-74
2023/12/18 01:38:12;;;;;;;9.30;5.45;;;;;;;-3.54;77.35;96497.78;5126691;28;20109;-74
2023/12/18 01:40:38;;;;;;;8.57;5.13;;;;;;;-3.46;76.42;96485.91;5109532;28;20043;-74
2023/12/18 01:43:21;;;;;;;9.30;5.22;;;;;;;-3.29;75.96;96500.28;5109208;28;20055;-74
2023/12/18 01:45:46;;;;;;;7.93;4.50;;;;;;;-3.28;75.75;96492.69;5138961;27;20023;-74
2023/12/18 01:48:12;;;;;;;7.82;5.10;;;;;;;-3.42;76.00;96480.00;5143518;27;20528;-74
2023/12/18 01:50:37;;;;;;;7.90;5.00;;;;;;;-3.55;76.20;96473.22;5126538;28;20408;-74
2023/12/18 01:53:03;;;;;;;7.50;4.43;;;;;;;-3.71;77.26;96479.16;5126434;28;20035;-75
2023/12/18 01:55:28;;;;;;;11.38;6.00;;;;;;;-3.57;77.65;96469.00;5109346;28;20027;-74
2023/12/18 01:57:54;;;;;;;19.50;7.50;;;;;;;-3.67;77.44;96450.41;5111117;28;20040;-74
2023/12/18 02:00:19;;;;;;;28.08;11.63;;;;;;;-3.41;77.21;96458.81;5114445;28;20450;-74
2023/12/18 02:02:44;;;;;;;10.48;5.47;;;;;;;-3.50;76.69;96455.44;5112846;28;20088;-74
2023/12/18 02:05:10;;;;;;;15.15;9.23;;;;;;;-3.70;75.81;96479.19;5095791;28;20036;-74
2023/12/18 02:07:36;;;;;;;20.55;12.07;;;;;;;-3.98;77.21;96462.25;5147312;27;20428;-74
2023/12/18 02:10:02;;;;;;;17.00;10.70;;;;;;;-3.91;77.69;96474.94;5129918;27;20023;-74
2023/12/18 02:12:28;;;;;;;14.35;8.30;;;;;;;-3.90;77.99;96452.94;5129791;27;20042;-74
2023/12/18 02:14:53;;;;;;;15.70;9.20;;;;;;;-3.67;76.89;96478.34;5129801;27;20484;-74
2023/12/18 02:17:19;;;;;;;9.82;6.75;;;;;;;-3.92;77.01;96465.66;5147086;27;20696;-74
2023/12/18 02:19:44;;;;;;;12.18;6.82;;;;;;;-3.70;77.17;96478.34;5129813;27;20016;-74
2023/12/18 02:22:10;;;;;;;10.05;5.85;;;;;;;-3.61;76.01;96479.16;5112518;28;20031;-74
2023/12/18 02:24:35;;;;;;;8.18;5.05;;;;;;;-3.68;76.16;96462.22;5146995;27;20488;-74
2023/12/18 02:27:01;;;;;;;6.70;4.57;;;;;;;-3.60;76.14;96467.31;5113686;28;20101;-75
2023/12/18 02:29:26;;;;;;;10.32;5.03;;;;;;;-3.56;75.84;96473.25;5112323;28;20076;-74
2023/12/18 02:31:51;;;;;;;7.35;4.32;;;;;;;-3.88;76.11;96430.94;5129521;27;20035;-74
2023/12/18 02:34:17;;;;;;;8.90;4.53;;;;;;;-3.77;76.45;96459.69;5129250;27;20034;-74
2023/12/18 02:36:42;;;;;;;6.63;4.25;;;;;;;-3.92;76.21;96441.94;5112165;28;20019;-75
2023/12/18 02:39:08;;;;;;;10.52;7.70;;;;;;;-3.91;77.18;96471.56;5095147;28;20054;-74
2023/12/18 02:41:33;;;;;;;10.10;7.85;;;;;;;-4.19;78.20;96420.78;5112266;28;20016;-74
2023/12/18 02:43:58;;;;;;;10.75;6.00;;;;;;;-4.14;79.67;96461.41;5111697;28;20529;-74
2023/12/18 02:46:24;;;;;;;10.50;7.63;;;;;;;-4.03;80.57;96463.97;5113352;28;20020;-74
2023/12/18 02:48:49;;;;;;;9.13;5.43;;;;;;;-3.78;78.58;96458.03;5112112;28;20031;-74
2023/12/18 02:51:15;;;;;;;7.85;5.00;;;;;;;-3.80;77.97;96444.47;5111918;28;20020;-74
2023/12/18 02:53:40;;;;;;;10.13;5.47;;;;;;;-3.90;77.61;96465.63;5112073;28;20439;-74
2023/12/18 02:56:06;;;;;;;9.63;5.32;;;;;;;-3.74;77.63;96466.47;5111928;28;20016;-74
2023/12/18 02:58:31;;;;;;;7.30;4.63;;;;;;;-3.83;76.18;96462.25;5146224;27;20088;-74
2023/12/18 03:00:57;;;;;;;8.70;4.90;;;;;;;-3.93;76.52;96468.16;5112990;28;20024;-74
2023/12/18 03:03:22;;;;;;;11.13;5.78;;;;;;;-3.83;76.86;96474.94;5094776;28;20097;-74
2023/12/18 03:05:48;;;;;;;9.40;5.60;;;;;;;-3.80;76.74;96485.09;5146138;27;20031;-74
2023/12/18 03:08:13;;;;;;;10.15;5.70;;;;;;;-3.73;76.53;96485.94;5111523;28;20040;-74
2023/12/18 03:10:39;;;;;;;8.52;5.47;;;;;;;-3.88;76.65;96458.88;5111717;28;20109;-74
2023/12/18 03:13:04;;;;;;;7.32;4.90;;;;;;;-3.85;76.52;96448.69;5112591;28;20113;-74
2023/12/18 03:15:30;;;;;;;8.60;4.18;;;;;;;-3.85;76.36;96446.16;5094329;28;20475;-74
2023/12/18 03:17:55;;;;;;;8.88;4.55;;;;;;;-3.65;76.87;96482.56;5112845;28;20053;-74
2023/12/18 03:20:20;;;;;;;13.25;7.10;;;;;;;-3.64;76.50;96469.00;5145815;27;20081;-74
2023/12/18 03:22:46;;;;;;;14.13;7.07;;;;;;;-3.60;76.94;96480.84;5111443;28;20057;-75
2023/12/18 03:25:11;;;;;;;11.88;6.35;;;;;;;-3.50;77.31;96475.78;5111361;28;20024;-74
2023/12/18 03:27:37;;;;;;;9.55;5.97;;;;;;;-3.44;76.64;96481.69;5111187;28;20413;-74
2023/12/18 03:30:02;;;;;;;9.57;5.65;;;;;;;-3.61;76.66;96473.25;5112479;28;20031;-74
2023/12/18 03:32:28;;;;;;;10.15;6.20;;;;;;;-3.67;77.40;96460.56;5128250;27;20126;-74
2023/12/18 03:34:53;;;;;;;11.15;5.03;;;;;;;-3.59;75.81;96448.69;5112277;28;20028;-74
2023/12/18 03:37:19;;;;;;;7.22;4.50;;;;;;;-3.40;75.10;96463.06;5111007;28;20036;-74
2023/12/18 03:39:44;;;;;;;8.40;5.38;;;;;;;-3.38;74.76;96458.78;5111211;28;20332;-74
2023/12/18 03:42:09;;;;;;;10.15;6.20;;;;;;;-3.36;75.00;96453.72;5111863;28;20027;-75
2023/12/18 03:44:35;;;;;;;8.57;5.30;;;;;;;-3.59;75.03;96446.16;5112175;28;20096;-75
2023/12/18 03:47:02;;;;;;;8.15;5.10;;;;;;;-3.60;75.66;96452.91;5127842;27;20051;-74
2023/12/18 03:49:27;;;;;;;7.82;4.68;;;;;;;-3.50;76.43;96451.22;5112013;28;20077;-74
2023/12/18 03:51:53;;;;;;;7.88;5.20;;;;;;;-3.54;75.41;96441.03;5093832;28;20027;-74
2023/12/18 03:54:18;;;;;;;7.90;4.65;;;;;;;-3.49;75.25;96444.41;5111864;28;20085;-74
2023/12/18 03:56:44;;;;;;;7.25;4.85;;;;;;;-3.80;75.14;96444.47;5145051;27;20078;-74
2023/12/18 03:59:09;;;;;;;9.00;5.43;;;;;;;-3.77;75.72;96448.69;5111874;28;20103;-74
2023/12/18 04:01:34;;;;;;;9.18;5.35;;;;;;;-3.71;75.48;96444.44;5110709;28;20458;-74
2023/12/18 04:04:00;;;;;;;8.60;5.68;;;;;;;-3.82;76.45;96443.63;5127767;27;20036;-74
2023/12/18 04:06:25;;;;;;;12.27;7.38;;;;;;;-3.78;76.24;96455.47;5127812;27;20035;-74
2023/12/18 04:08:51;;;;;;;11.55;7.30;;;;;;;-4.08;78.68;96461.41;5112162;28;20032;-74
2023/12/18 04:11:16;;;;;;;9.70;6.57;;;;;;;-4.07;78.71;96442.78;5144943;27;20031;-74
2023/12/18 04:13:42;;;;;;;10.10;7.20;;;;;;;-3.90;78.92;96460.53;5110383;28;20066;-74
2023/12/18 04:16:08;;;;;;;12.15;8.15;;;;;;;-3.82;78.13;96456.31;5144585;27;20027;-75
2023/12/18 04:18:35;;;;;;;9.65;6.45;;;;;;;-3.95;78.59;96472.44;5127425;27;20481;-74
2023/12/18 04:21:01;;;;;;;11.80;6.25;;;;;;;-3.84;77.30;96481.72;5143754;27;20019;-75
2023/12/18 04:23:26;;;;;;;12.95;7.45;;;;;;;-3.70;76.56;96483.44;5144643;27;20439;-74
2023/12/18 04:25:51;;;;;;;13.85;8.55;;;;;;;-3.72;76.34;96473.25;5110231;28;20032;-74
2023/12/18 04:28:17;;;;;;;10.65;6.65;;;;;;;-3.88;76.78;96469.03;5110341;28;20088;-74
2023/12/18 04:30:42;;;;;;;10.07;6.60;;;;;;;-3.99;77.58;96461.41;5110617;28;20039;-74
2023/12/18 04:33:08;;;;;;;8.38;5.45;;;;;;;-3.73;77.21;96471.56;5108398;28;20031;-74
2023/12/18 04:35:33;;;;;;;8.20;4.50;;;;;;;-3.67;76.22;96463.09;5109675;28;20084;-74
2023/12/18 04:37:58;;;;;;;10.60;5.32;;;;;;;-3.70;75.74;96461.41;5093152;28;20036;-74
2023/12/18 04:40:24;;;;;;;50.85;33.95;;;;;;;-3.85;76.82;96454.63;5100033;28;20541;-74
2023/12/18 04:42:53;;;;;;;32.50;20.25;;;;;;;-3.67;76.63;96456.31;5108325;28;20048;-74
2023/12/18 04:45:18;;;;;;;26.77;12.65;;;;;;;-3.75;76.22;96439.41;5091561;28;20118;-74
2023/12/18 04:47:46;;;;;;;23.13;13.30;;;;;;;-4.00;76.62;96416.56;5109059;27;20039;-74
2023/12/18 04:50:12;;;;;;;13.75;7.30;;;;;;;-3.67;76.96;96463.94;5108446;28;20031;-74
2023/12/18 04:52:37;;;;;;;11.00;6.43;;;;;;;-3.83;76.75;96436.84;5088850;28;20031;-74
2023/12/18 04:55:03;;;;;;;12.50;6.80;;;;;;;-4.01;77.50;96452.09;5108625;28;20027;-74
2023/12/18 04:57:28;;;;;;;8.45;5.30;;;;;;;-3.95;78.24;96452.94;5107224;28;20057;-73
2023/12/18 04:59:53;;;;;;;9.88;6.28;;;;;;;-3.85;75.64;96459.69;5108104;28;20219;-71
2023/12/18 05:02:19;;;;;;;9.05;5.45;;;;;;;-3.81;75.25;96465.66;5108607;28;20044;-73
2023/12/18 05:04:44;;;;;;;11.32;6.22;;;;;;;-3.83;75.23;96469.88;5091269;28;20035;-73
2023/12/18 05:07:11;;;;;;;10.93;6.38;;;;;;;-3.82;75.60;96474.09;5110719;28;20032;-74
2023/12/18 05:09:36;;;;;;;11.18;5.28;;;;;;;-3.88;76.21;96474.09;5108233;28;20027;-74
2023/12/18 05:12:02;;;;;;;12.68;6.18;;;;;;;-3.90;76.02;96460.53;5108649;28;20396;-74
2023/12/18 05:14:27;;;;;;;11.85;6.63;;;;;;;-3.93;76.58;96455.47;5124653;28;20087;-74
2023/12/18 05:16:53;;;;;;;10.93;6.53;;;;;;;-4.07;77.33;96463.97;5092136;28;20024;-74
2023/12/18 05:19:18;;;;;;;13.18;7.07;;;;;;;-3.91;77.30;96463.94;5091670;28;20027;-74
2023/12/18 05:21:44;;;;;;;13.32;7.72;;;;;;;-3.82;77.00;96472.44;5105600;28;20019;-75
2023/12/18 05:24:09;;;;;;;13.15;6.72;;;;;;;-3.87;76.86;96460.56;5113686;28;20474;-74
2023/12/18 05:26:34;;;;;;;12.48;7.00;;;;;;;-4.01;76.91;96463.13;5112435;27;20050;-75
2023/12/18 05:29:00;;;;;;;12.60;6.88;;;;;;;-4.39;78.28;96445.31;5106880;28;20035;-74
2023/12/18 05:31:26;;;;;;;11.20;7.32;;;;;;;-4.12;78.70;96460.56;5121831;27;20028;-74
2023/12/18 05:33:51;;;;;;;11.43;7.43;;;;;;;-4.17;78.15;96441.09;5109770;28;20034;-75
2023/12/18 05:36:17;;;;;;;11.30;8.75;;;;;;;-3.91;77.96;96448.72;5112240;28;20031;-75
2023/12/18 05:38:42;;;;;;;12.93;8.65;;;;;;;-3.89;77.02;96436.88;5094374;28;20038;-74
2023/12/18 05:41:08;;;;;;;12.68;9.32;;;;;;;-3.82;76.40;96451.22;5129469;27;20019;-74
2023/12/18 05:43:34;;;;;;;10.23;8.18;;;;;;;-3.72;75.61;96455.47;5092404;28;20428;-74
2023/12/18 05:45:59;;;;;;;12.38;7.80;;;;;;;-3.82;75.24;96426.72;5134430;27;20480;-74
2023/12/18 05:48:25;;;;;;;12.10;8.00;;;;;;;-3.69;75.48;96457.16;5123231;27;20042;-75
2023/12/18 05:50:50;;;;;;;11.65;7.43;;;;;;;-3.75;75.08;96435.16;5112242;28;20027;-75
2023/12/18 05:53:15;;;;;;;8.13;5.30;;;;;;;-3.67;75.58;96447.84;5112357;28;20070;-74
2023/12/18 05:55:41;;;;;;;9.30;5.90;;;;;;;-3.72;75.37;96449.56;5112785;28;20035;-74
2023/12/18 05:58:07;;;;;;;8.43;5.30;;;;;;;-3.77;75.43;96448.69;5078239;28;20024;-74
2023/12/18 06:00:32;;;;;;;10.13;5.63;;;;;;;-3.77;75.25;96447.00;5110157;28;20027;-74
2023/12/18 06:02:57;;;;;;;10.25;5.53;;;;;;;-3.89;76.56;96447.03;5111888;28;20409;-74
2023/12/18 06:05:23;;;;;;;8.93;5.85;;;;;;;-4.29;75.95;96388.63;5111991;28;20042;-74
2023/12/18 06:07:48;;;;;;;11.40;6.95;;;;;;;-3.75;75.88;96465.63;5113939;28;20038;-74
2023/12/18 06:10:14;;;;;;;13.30;7.65;;;;;;;-3.68;75.50;96464.75;5111005;28;20024;-74
2023/12/18 06:12:39;;;;;;;21.98;12.02;;;;;;;-3.73;75.42;96461.41;5110611;28;20122;-74
2023/12/18 06:15:05;;;;;;;15.60;9.32;;;;;;;-3.68;75.20;96467.31;5145746;27;20489;-74
2023/12/18 06:17:31;;;;;;;15.75;9.45;;;;;;;-3.88;76.34;96477.47;5112341;28;20028;-74
2023/12/18 06:19:56;;;;;;;11.23;6.43;;;;;;;-3.79;75.72;96458.84;5147042;27;20531;-76
2023/12/18 06:22:22;;;;;;;10.20;7.10;;;;;;;-3.79;75.73;96471.56;5138327;27;20108;-75
2023/12/18 06:24:48;;;;;;;10.25;6.85;;;;;;;-3.78;76.28;96475.81;5094510;28;20015;-75
2023/12/18 06:27:13;;;;;;;12.63;7.40;;;;;;;-3.69;76.03;96467.31;5111828;28;20031;-75
2023/12/18 06:29:38;;;;;;;10.90;7.15;;;;;;;-3.68;76.00;96474.94;5112544;28;20114;-74
2023/12/18 06:32:04;;;;;;;10.80;7.15;;;;;;;-3.68;75.97;96474.94;5111425;28;20039;-75
2023/12/18 06:34:30;;;;;;;9.85;6.03;;;;;;;-3.61;75.83;96469.00;5074408;28;20123;-75
2023/12/18 06:36:55;;;;;;;9.18;6.03;;;;;;;-3.48;75.42;96468.97;5113388;28;20016;-78
2023/12/18 06:39:20;;;;;;;9.90;5.97;;;;;;;-3.54;75.43;96453.75;5113724;28;20023;-74
2023/12/18 06:41:46;;;;;;;13.95;8.52;;;;;;;-3.50;75.81;96465.63;5105448;27;20031;-74
2023/12/18 06:44:11;;;;;;;14.90;8.30;;;;;;;-3.61;75.82;96443.59;5111795;28;20062;-74
2023/12/18 06:46:37;;;;;;;13.57;8.57;;;;;;;-3.49;75.18;96457.13;5107834;28;20508;-74
2023/12/18 06:49:02;;;;;;;13.55;8.10;;;;;;;-3.50;75.32;96441.03;5110987;28;20043;-74
2023/12/18 06:51:28;;;;;;;13.35;8.18;;;;;;;-3.50;75.09;96455.44;5111363;28;20024;-74
2023/12/18 06:53:53;;;;;;;12.85;7.43;;;;;;;-3.66;76.30;96457.16;5128140;27;20122;-74
2023/12/18 06:56:19;;;;;;;11.40;7.55;;;;;;;-3.49;76.03;96441.88;5093753;28;20028;-74
2023/12/18 06:58:44;;;;;;;10.80;7.70;;;;;;;-3.43;76.01;96444.41;5109701;28;20035;-73
2023/12/18 07:01:09;;;;;;;11.75;7.10;;;;;;;-3.33;75.99;96442.69;5123733;27;20036;-73
2023/12/18 07:03:35;;;;;;;9.77;6.57;;;;;;;-3.38;75.55;96438.47;5111938;27;20466;-74
2023/12/18 07:06:01;;;;;;;8.52;6.35;;;;;;;-3.32;76.26;96445.22;5111438;28;20038;-74
2023/12/18 07:08:29;;;;;;;8.85;5.72;;;;;;;-3.29;75.57;96455.38;5144049;27;20024;-74
2023/12/18 07:10:55;;;;;;;9.27;5.63;;;;;;;-3.40;75.27;96447.81;5110517;28;20027;-74
2023/12/18 07:13:20;;;;;;;7.25;5.10;;;;;;;-3.22;75.52;96472.31;5111320;28;20118;-74
2023/12/18 07:15:46;;;;;;;6.97;4.60;;;;;;;-3.17;75.24;96464.69;5112089;28;20409;-74
2023/12/18 07:18:13;;;;;;;7.65;5.25;;;;;;;-3.40;75.89;96447.81;5111311;28;20443;-74
2023/12/18 07:20:39;;;;;;;11.95;7.25;;;;;;;-3.39;77.16;96474.91;5127590;27;20076;-74
2023/12/18 07:23:05;;;;;;;11.32;7.72;;;;;;;-3.26;76.53;96470.66;5111537;28;20039;-75
2023/12/18 07:25:30;;;;;;;10.90;6.82;;;;;;;-3.42;77.17;96443.56;5110986;28;20443;-74
2023/12/18 07:27:56;;;;;;;11.25;6.90;;;;;;;-3.43;77.50;96445.25;5112574;28;20061;-74
2023/12/18 07:30:21;;;;;;;12.98;7.30;;;;;;;-3.23;77.63;96470.63;5077307;28;20085;-74
2023/12/18 07:32:46;;;;;;;13.18;8.13;;;;;;;-3.25;77.82;96467.25;5112570;28;20020;-74
2023/12/18 07:35:12;;;;;;;12.77;8.05;;;;;;;-3.24;78.25;96457.91;5077248;28;20421;-74
2023/12/18 07:37:37;;;;;;;13.05;8.40;;;;;;;-3.00;77.43;96474.81;5112665;28;20520;-74
2023/12/18 07:40:03;;;;;;;21.00;12.50;;;;;;;-3.03;77.98;96468.03;5111174;28;20023;-74
2023/12/18 07:42:29;;;;;;;17.95;10.35;;;;;;;-3.03;78.04;96462.94;5110917;28;20116;-74
2023/12/18 07:44:54;;;;;;;13.25;8.73;;;;;;;-2.80;77.71;96462.00;5111105;28;20412;-74
2023/12/18 07:47:19;;;;;;;16.92;9.82;;;;;;;-2.98;77.55;96440.88;5093945;28;20034;-74
2023/12/18 07:49:45;;;;;;;18.00;10.13;;;;;;;-2.74;77.62;96460.25;5093872;28;20028;-74
2023/12/18 07:52:11;;;;;;;17.02;8.93;;;;;;;-2.62;77.51;96436.47;5093870;28;20114;-74
2023/12/18 07:54:36;;;;;;;14.50;8.32;;;;;;;-2.78;77.04;96428.06;5110122;28;20024;-74
2023/12/18 07:57:04;;;;;;;14.80;9.43;;;;;;;-2.56;77.20;96444.06;5110676;28;20055;-75
2023/12/18 07:59:30;;;;;;;28.75;15.27;;;;;;;-2.61;78.26;96450.88;5094226;28;20032;-74
2023/12/18 08:01:55;;;;;;;32.80;16.98;;;;;;;-2.79;79.39;96436.53;5093638;28;20023;-74
2023/12/18 08:04:21;;;;;;;31.67;17.00;;;;;;;-2.79;79.39;96449.25;5110619;28;20032;-74
2023/12/18 08:06:47;;;;;;;28.73;15.43;;;;;;;-2.72;80.11;96452.63;5110835;28;20440;-75
2023/12/18 08:09:13;;;;;;;23.45;14.27;;;;;;;-2.67;80.20;96455.13;5110514;28;20027;-74
2023/12/18 08:11:39;;;;;;;20.80;12.10;;;;;;;-2.66;80.51;96451.75;5110491;28;20079;-75
2023/12/18 08:14:05;;;;;;;21.23;12.35;;;;;;;-2.53;80.54;96449.16;5110636;28;20035;-74
2023/12/18 08:16:30;;;;;;;21.42;11.35;;;;;;;-2.26;80.00;96453.22;5110500;28;20034;-74
2023/12/18 08:18:57;;;;;;;20.27;11.80;;;;;;;-2.43;79.65;96393.09;5093714;28;20482;-74
2023/12/18 08:21:23;;;;;;;20.58;10.80;;;;;;;-2.03;79.55;96449.66;5110398;28;20485;-74
2023/12/18 08:23:48;;;;;;;15.75;10.35;;;;;;;-1.91;79.98;96431.72;5093509;28;20027;-74
2023/12/18 08:26:14;;;;;;;20.08;11.60;;;;;;;-1.63;78.28;96439.13;5110346;28;20024;-74
2023/12/18 08:28:43;;;;;;;16.80;10.05;;;;;;;-1.48;77.77;96433.03;5111891;28;20042;-75
2023/12/18 08:31:08;;;;;;;18.20;10.77;;;;;;;-1.38;77.52;96438.03;5110335;28;20024;-74
2023/12/18 08:33:33;;;;;;;21.63;13.48;;;;;;;-1.02;76.85;96456.34;5110310;28;20039;-74
2023/12/18 08:35:59;;;;;;;21.15;13.48;;;;;;;-1.13;76.98;96443.69;5111334;28;20039;-74
2023/12/18 08:38:24;;;;;;;19.70;11.93;;;;;;;-1.02;77.07;96458.91;5111682;28;20059;-74
2023/12/18 08:40:50;;;;;;;25.80;14.60;;;;;;;-0.95;76.86;96463.06;5111400;28;20497;-75
2023/12/18 08:43:15;;;;;;;37.03;18.88;;;;;;;-0.94;76.79;96459.66;5109952;28;20491;-75
2023/12/18 08:45:42;;;;;;;36.90;19.17;;;;;;;-0.79;76.39;96456.06;5093134;28;20031;-75
2023/12/18 08:48:07;;;;;;;30.13;17.77;;;;;;;-1.05;76.38;96435.13;5111481;28;20043;-75
2023/12/18 08:50:32;;;;;;;57.05;30.27;;;;;;;-1.00;76.14;96454.63;5110091;28;20028;-74
2023/12/18 08:52:58;;;;;;;29.98;17.08;;;;;;;-0.80;75.80;96448.44;5109998;28;20032;-75
2023/12/18 08:55:23;;;;;;;39.13;21.67;;;;;;;-0.83;75.77;96443.38;5109935;28;20482;-75
2023/12/18 08:57:49;;;;;;;29.73;16.60;;;;;;;-0.47;75.11;96453.09;5110125;28;20046;-75
2023/12/18 09:00:15;;;;;;;29.52;18.02;;;;;;;-0.39;73.67;96426.59;5109951;28;20084;-74
2023/12/18 09:02:40;;;;;;;25.25;15.00;;;;;;;-0.22;73.95;96457.88;5093013;28;20471;-75
2023/12/18 09:05:06;;;;;;;26.60;14.88;;;;;;;-0.30;73.31;96452.03;5111075;28;20077;-75
2023/12/18 09:07:31;;;;;;;24.17;13.60;;;;;;;-0.07;73.79;96436.34;5113078;28;20089;-75
2023/12/18 09:09:56;;;;;;;22.45;13.82;;;;;;;0.13;74.11;96430.94;5114060;28;20072;-74
2023/12/18 09:12:22;;;;;;;22.25;13.68;;;;;;;0.18;74.72;96435.09;5113948;28;20084;-75
2023/12/18 09:14:48;;;;;;;22.83;14.32;;;;;;;0.39;73.98;96430.47;5113983;28;20036;-75
2023/12/18 09:17:13;;;;;;;22.02;14.07;;;;;;;0.65;72.55;96430.03;5113758;28;20050;-75
2023/12/18 09:19:38;;;;;;;21.13;13.30;;;;;;;0.74;72.22;96422.19;5113915;28;20024;-75
2023/12/18 09:22:04;;;;;;;25.67;14.65;;;;;;;0.79;72.40;96420.38;5113755;28;20031;-75
2023/12/18 09:24:29;;;;;;;32.22;18.33;;;;;;;0.38;72.05;96410.91;5115011;28;20035;-75
2023/12/18 09:26:55;;;;;;;25.73;14.90;;;;;;;0.78;72.59;96413.59;5113632;28;20051;-75
2023/12/18 09:29:20;;;;;;;26.00;15.43;;;;;;;0.85;72.09;96397.22;5096689;28;20024;-75
2023/12/18 09:31:47;;;;;;;24.67;15.27;;;;;;;1.04;72.08;96396.88;5113552;28;20030;-75
2023/12/18 09:34:12;;;;;;;24.42;15.55;;;;;;;1.06;72.44;96400.25;5113482;28;20076;-74
2023/12/18 09:36:37;;;;;;;34.58;17.90;;;;;;;0.98;70.83;96397.00;5113590;28;20032;-75
2023/12/18 09:39:03;;;;;;;26.77;17.20;;;;;;;1.06;70.32;96388.31;5115132;28;20081;-75
2023/12/18 09:41:28;;;;;;;30.00;17.75;;;;;;;0.99;70.73;96378.22;5113496;28;20552;-75
2023/12/18 09:43:54;;;;;;;35.38;20.95;;;;;;;0.61;71.44;96367.00;5096328;28;20062;-75
2023/12/18 09:46:23;;;;;;;34.17;19.23;;;;;;;0.72;72.20;96390.66;5113392;28;20034;-74
2023/12/18 09:48:52;;;;;;;26.65;17.48;;;;;;;1.22;71.40;96383.69;5096551;28;20489;-75
2023/12/18 09:51:20;;;;;;;28.17;17.35;;;;;;;1.34;70.69;96378.31;5113195;28;20084;-75
2023/12/18 09:53:46;;;;;;;28.83;17.13;;;;;;;1.11;71.71;96368.56;5096409;28;20031;-75
2023/12/18 09:56:11;;;;;;;29.73;17.33;;;;;;;1.03;72.89;96372.13;5096098;28;20030;-75
2023/12/18 09:58:38;;;;;;;30.17;17.70;;;;;;;1.27;71.99;96365.66;5113271;28;20023;-76
2023/12/18 10:01:04;;;;;;;27.63;16.38;;;;;;;1.61;71.07;96370.03;5113093;28;20514;-76
2023/12/18 10:03:29;;;;;;;26.10;16.48;;;;;;;1.76;70.91;96357.72;5096139;28;20028;-76
2023/12/18 10:05:55;;;;;;;24.48;15.02;;;;;;;1.94;70.04;96368.41;5114230;28;20035;-76
2023/12/18 10:08:21;;;;;;;28.80;15.82;;;;;;;2.00;70.68;96342.63;5112974;28;20400;-76
2023/12/18 10:10:46;;;;;;;26.85;15.75;;;;;;;2.14;70.60;96355.09;5112929;28;20154;-75
2023/12/18 10:13:13;;;;;;;23.02;15.30;;;;;;;2.26;69.88;96357.38;5095917;28;20110;-76
2023/12/18 10:15:39;;;;;;;25.40;16.50;;;;;;;2.35;69.99;96359.69;5095923;28;20101;-76
2023/12/18 10:18:05;;;;;;;38.80;23.00;;;;;;;2.01;69.86;96349.44;5095037;28;20485;-76
2023/12/18 10:20:31;;;;;;;25.38;16.17;;;;;;;2.30;69.46;96350.41;5112762;28;20027;-76
2023/12/18 10:22:56;;;;;;;42.65;25.00;;;;;;;1.98;67.58;96334.16;5095622;28;20046;-76
2023/12/18 10:25:22;;;;;;;41.13;24.20;;;;;;;1.94;68.71;96358.16;5112644;28;20024;-75
2023/12/18 10:27:47;;;;;;;31.38;19.60;;;;;;;2.23;69.93;96353.16;5095494;28;20289;-75
2023/12/18 10:30:13;;;;;;;33.35;20.33;;;;;;;2.15;70.25;96344.81;5095547;28;20435;-75
2023/12/18 10:32:39;;;;;;;40.38;23.48;;;;;;;1.68;70.67;96345.97;5113774;28;20057;-76
2023/12/18 10:35:05;;;;;;;39.63;22.45;;;;;;;1.81;70.23;96336.25;5095340;28;20111;-76
2023/12/18 10:37:31;;;;;;;32.42;20.83;;;;;;;2.05;70.36;96327.97;5112480;28;20032;-76
2023/12/18 10:40:04;;;;;;;34.20;20.40;;;;;;;2.30;69.97;96338.44;5112290;28;20023;-75
2023/12/18 10:42:36;;;;;;;34.83;20.48;;;;;;;2.05;69.55;96302.31;5095581;28;20027;-76
2023/12/18 10:45:08;;;;;;;30.67;20.27;;;;;;;2.10;70.35;96303.06;5095179;28;20020;-75
2023/12/18 10:47:33;;;;;;;31.95;21.80;;;;;;;2.37;69.52;96318.63;5112101;28;20046;-75
2023/12/18 10:50:05;;;;;;;29.98;19.67;;;;;;;2.68;70.15;96319.44;5112452;28;20028;-75
2023/12/18 10:52:31;;;;;;;30.25;19.23;;;;;;;2.84;70.28;96309.59;5113533;28;20504;-76
2023/12/18 10:55:00;;;;;;;33.33;20.10;;;;;;;2.78;70.29;96301.22;5095017;28;20429;-76
2023/12/18 10:57:26;;;;;;;28.63;19.67;;;;;;;2.97;69.91;96286.97;5095078;28;20076;-76
2023/12/18 10:59:51;;;;;;;32.88;19.80;;;;;;;3.09;69.35;96284.03;5094911;28;20050;-75
2023/12/18 11:02:17;;;;;;;28.42;18.83;;;;;;;3.24;69.47;96279.31;5094781;28;20036;-73
2023/12/18 11:04:43;;;;;;;29.52;17.88;;;;;;;3.25;69.36;96281.00;5094921;28;20478;-75
2023/12/18 11:07:10;;;;;;;29.90;19.40;;;;;;;3.40;69.26;96274.53;5112928;28;20485;-76
2023/12/18 11:09:35;;;;;;;27.35;17.52;;;;;;;3.46;68.99;96259.78;5111712;28;20412;-76
2023/12/18 11:12:01;;;;;;;28.38;18.55;;;;;;;3.51;68.96;96260.47;5094689;28;20046;-76
2023/12/18 11:14:33;;;;;;;28.70;19.00;;;;;;;3.57;68.76;96267.16;5111507;28;20036;-76
2023/12/18 11:17:03;;;;;;;31.33;20.40;;;;;;;3.49;69.07;96251.97;5111648;28;20049;-73
2023/12/18 11:19:41;;;;;;;29.38;20.08;;;;;;;3.57;69.24;96252.56;5111555;28;20023;-75